Time;durP1;ratioP1;P1;durP2;ratioP2;P2;SDS_P1;SDS_P2;PMS_P1;PMS_P2;Temp;Humidity;BMP_temperature;BMP_pressure;BME280_temperature;BME280_humidity;BME280_pressure;Samples;Min_cycle;Max_cycle;Signal;HPM_P1;HPM_P2
2021/04/06 00:01:41;;;;;;;8.65;2.47;;;;;;;0.84;100.00;100625.78;4994583;28;20104;-80
2021/04/06 00:04:10;;;;;;;10.05;1.90;;;;;;;0.90;100.00;100604.22;5009760;28;20125;-78
2021/04/06 00:06:39;;;;;;;6.55;1.60;;;;;;;0.91;100.00;100611.19;4983072;28;20058;-76
2021/04/06 00:09:14;;;;;;;6.32;1.15;;;;;;;0.90;100.00;100601.59;5010457;28;20076;-77
2021/04/06 00:11:42;;;;;;;6.05;2.03;;;;;;;0.94;100.00;100610.97;4981679;28;20042;-79
2021/04/06 00:14:09;;;;;;;10.02;1.60;;;;;;;0.96;100.00;100614.38;4990592;28;20049;-80
2021/04/06 00:16:35;;;;;;;6.03;1.30;;;;;;;0.99;100.00;100610.66;5006169;28;20045;-80
2021/04/06 00:19:02;;;;;;;6.68;2.47;;;;;;;0.97;100.00;100602.00;5003658;28;20129;-80
2021/04/06 00:21:28;;;;;;;4.68;1.20;;;;;;;0.93;100.00;100614.56;4981101;28;20125;-81
2021/04/06 00:23:56;;;;;;;9.30;1.90;;;;;;;0.90;100.00;100625.34;5013095;28;20099;-79
2021/04/06 00:26:21;;;;;;;6.32;1.58;;;;;;;0.94;100.00;100618.06;4992405;28;20615;-76
2021/04/06 00:28:48;;;;;;;9.93;2.03;;;;;;;0.92;100.00;100628.72;5006748;28;20050;-77
2021/04/06 00:31:15;;;;;;;8.52;1.60;;;;;;;0.94;100.00;100628.63;5003949;28;20038;-77
2021/04/06 00:33:45;;;;;;;7.20;1.73;;;;;;;0.96;100.00;100629.38;5009833;28;20054;-78
2021/04/06 00:36:13;;;;;;;7.43;1.73;;;;;;;0.92;100.00;100634.00;5005214;28;20387;-80
2021/04/06 00:38:41;;;;;;;7.40;1.73;;;;;;;0.92;100.00;100643.72;5006060;28;20049;-79
2021/04/06 00:41:12;;;;;;;6.88;1.60;;;;;;;0.94;100.00;100637.41;5009397;28;20042;-78
2021/04/06 00:43:40;;;;;;;10.45;1.50;;;;;;;0.96;100.00;100634.66;5003995;28;20045;-80
2021/04/06 00:46:12;;;;;;;8.27;1.67;;;;;;;0.91;100.00;100634.97;5008013;28;20045;-76
2021/04/06 00:48:41;;;;;;;7.88;1.48;;;;;;;0.92;100.00;100639.28;5003137;28;20045;-80
2021/04/06 00:51:20;;;;;;;7.70;1.45;;;;;;;0.89;100.00;100645.66;4988550;28;20043;-77
2021/04/06 00:53:51;;;;;;;6.35;1.88;;;;;;;0.87;100.00;100652.00;5008903;28;20136;-79
2021/04/06 00:56:17;;;;;;;6.95;1.38;;;;;;;0.85;100.00;100653.88;5010763;28;20041;-78
2021/04/06 00:58:43;;;;;;;8.00;1.52;;;;;;;0.87;100.00;100660.75;5003603;28;20482;-77
2021/04/06 01:01:10;;;;;;;9.18;2.08;;;;;;;0.88;100.00;100659.78;5007488;28;20042;-80
2021/04/06 01:03:37;;;;;;;6.10;1.40;;;;;;;0.91;100.00;100661.38;5007392;28;20073;-79
2021/04/06 01:06:02;;;;;;;8.27;1.73;;;;;;;0.94;100.00;100647.97;5006026;28;20498;-78
2021/04/06 01:08:37;;;;;;;7.85;1.65;;;;;;;0.91;100.00;100658.75;5005330;28;20041;-78
2021/04/06 01:11:04;;;;;;;9.90;1.70;;;;;;;0.92;100.00;100660.44;5011015;28;20045;-77
2021/04/06 01:13:32;;;;;;;7.72;1.40;;;;;;;0.93;100.00;100656.00;5000906;28;20046;-79
2021/04/06 01:15:58;;;;;;;6.93;1.30;;;;;;;0.90;100.00;100662.34;5001944;28;20050;-80
2021/04/06 01:18:27;;;;;;;9.32;1.65;;;;;;;0.88;100.00;100662.44;4981691;28;20383;-79
2021/04/06 01:20:55;;;;;;;9.90;1.80;;;;;;;0.89;100.00;100656.22;5014523;28;20502;-80
2021/04/06 01:23:21;;;;;;;7.55;1.92;;;;;;;0.86;100.00;100660.84;4991567;28;20687;-79
2021/04/06 01:25:53;;;;;;;10.50;1.83;;;;;;;0.87;100.00;100673.97;5007553;28;20128;-78
2021/04/06 01:28:19;;;;;;;8.75;1.73;;;;;;;0.83;100.00;100656.63;5009641;28;20038;-79
2021/04/06 01:30:46;;;;;;;7.63;1.70;;;;;;;0.81;100.00;100657.69;5005205;28;20049;-79
2021/04/06 01:33:14;;;;;;;8.98;1.80;;;;;;;0.75;100.00;100673.94;4991133;28;20054;-78
2021/04/06 01:35:52;;;;;;;9.80;1.65;;;;;;;0.77;100.00;100679.97;4994577;28;20073;-77
2021/04/06 01:38:18;;;;;;;8.45;1.80;;;;;;;0.80;100.00;100691.19;5008960;28;20034;-78
2021/04/06 01:40:46;;;;;;;5.05;1.52;;;;;;;0.79;100.00;100681.56;5007327;28;20061;-78
2021/04/06 01:43:14;;;;;;;11.23;2.10;;;;;;;0.75;100.00;100680.09;5008915;28;20042;-80
2021/04/06 01:45:44;;;;;;;10.27;1.80;;;;;;;0.74;100.00;100681.03;5009491;28;20041;-80
2021/04/06 01:48:12;;;;;;;9.00;2.17;;;;;;;0.70;100.00;100676.91;4989595;28;20066;-79
2021/04/06 01:50:38;;;;;;;9.18;2.15;;;;;;;0.73;100.00;100670.59;5001342;28;20049;-80
2021/04/06 01:53:05;;;;;;;10.45;2.15;;;;;;;0.70;100.00;100671.63;4991990;28;20049;-78
2021/04/06 01:55:33;;;;;;;11.82;2.08;;;;;;;0.65;100.00;100674.56;4984530;28;20041;-78
2021/04/06 01:58:00;;;;;;;7.07;1.88;;;;;;;0.66;100.00;100670.13;5009892;28;20050;-77
2021/04/06 02:00:43;;;;;;;5.80;1.70;;;;;;;0.64;100.00;100680.81;4991841;28;20046;-80
2021/04/06 02:03:14;;;;;;;12.35;2.30;;;;;;;0.64;100.00;100687.91;4999646;28;20046;-78
2021/04/06 02:05:42;;;;;;;8.23;2.08;;;;;;;0.66;100.00;100668.34;4990516;28;20074;-79
2021/04/06 02:08:12;;;;;;;8.00;2.25;;;;;;;0.68;100.00;100674.38;5005586;28;20062;-79
2021/04/06 02:10:38;;;;;;;10.70;2.72;;;;;;;0.68;100.00;100689.38;4980126;28;20038;-77
2021/04/06 02:13:11;;;;;;;7.85;1.38;;;;;;;0.71;100.00;100683.88;4987163;28;20398;-78
2021/04/06 02:15:39;;;;;;;8.80;1.90;;;;;;;0.74;100.00;100690.75;4990483;28;20140;-81
2021/04/06 02:18:05;;;;;;;6.57;1.98;;;;;;;0.68;100.00;100689.38;5008291;28;20053;-80
2021/04/06 02:20:30;;;;;;;6.07;1.90;;;;;;;0.78;100.00;100693.09;4987720;28;20038;-81
2021/04/06 02:23:03;;;;;;;7.25;2.00;;;;;;;0.74;100.00;100698.69;4986695;28;20046;-79
2021/04/06 02:25:30;;;;;;;13.68;2.10;;;;;;;0.77;100.00;100698.47;5003032;28;20096;-77
2021/04/06 02:27:57;;;;;;;9.25;1.80;;;;;;;0.75;100.00;100682.75;5006516;28;20046;-79
2021/04/06 02:30:30;;;;;;;7.55;2.03;;;;;;;0.76;100.00;100689.69;5008706;28;20050;-79
2021/04/06 02:33:00;;;;;;;9.00;2.08;;;;;;;0.79;100.00;100691.28;5007550;28;20065;-80
2021/04/06 02:35:26;;;;;;;12.90;2.30;;;;;;;0.74;100.00;100677.53;5006494;28;20045;-77
2021/04/06 02:37:52;;;;;;;10.88;2.30;;;;;;;0.74;100.00;100678.38;5008726;28;20072;-77
2021/04/06 02:40:18;;;;;;;10.07;1.63;;;;;;;0.70;100.00;100689.28;5006980;28;20038;-78
2021/04/06 02:42:47;;;;;;;10.85;2.55;;;;;;;0.78;100.00;100681.69;5006978;28;20561;-78
2021/04/06 02:45:17;;;;;;;8.73;2.13;;;;;;;0.76;100.00;100688.88;5011342;28;20153;-79
2021/04/06 02:47:51;;;;;;;12.57;2.63;;;;;;;0.74;100.00;100685.47;5006240;28;20132;-78
2021/04/06 02:50:25;;;;;;;9.75;2.10;;;;;;;0.76;100.00;100702.06;4989119;28;20648;-79
2021/04/06 02:52:52;;;;;;;10.82;2.15;;;;;;;0.77;100.00;100701.94;4985918;28;20149;-78
2021/04/06 02:55:19;;;;;;;12.15;2.30;;;;;;;0.82;100.00;100696.38;5007681;28;20069;-77
2021/04/06 02:57:50;;;;;;;10.05;1.73;;;;;;;0.79;100.00;100697.41;5002505;28;20046;-79
2021/04/06 03:00:24;;;;;;;11.32;1.90;;;;;;;0.84;100.00;100689.19;5005993;28;20076;-79
2021/04/06 03:02:51;;;;;;;14.15;2.20;;;;;;;0.82;100.00;100696.38;5007223;28;20108;-79
2021/04/06 03:05:37;;;;;;;11.05;2.45;;;;;;;0.77;100.00;100691.38;4983942;28;20046;-78
2021/04/06 03:08:04;;;;;;;16.10;3.00;;;;;;;0.82;100.00;100691.94;4961506;28;20048;-78
2021/04/06 03:10:32;;;;;;;9.45;2.08;;;;;;;0.85;100.00;100697.00;5008845;28;20138;-77
2021/04/06 03:13:22;;;;;;;16.75;2.88;;;;;;;0.82;100.00;100680.50;4991603;28;20050;-78
2021/04/06 03:15:47;;;;;;;12.98;2.25;;;;;;;0.81;100.00;100689.41;4990201;28;20053;-78
2021/04/06 03:18:13;;;;;;;15.23;3.22;;;;;;;0.77;100.00;100682.63;5009273;28;20069;-78
2021/04/06 03:20:40;;;;;;;11.63;2.40;;;;;;;0.74;100.00;100682.81;5013391;28;21576;-77
2021/04/06 03:23:08;;;;;;;14.27;2.63;;;;;;;0.72;100.00;100677.66;5016832;28;20487;-78
2021/04/06 03:25:37;;;;;;;15.75;2.63;;;;;;;0.67;100.00;100680.59;4994287;28;20053;-78
2021/04/06 03:28:07;;;;;;;11.77;2.67;;;;;;;0.64;100.00;100690.53;5012845;28;20037;-78
2021/04/06 03:30:34;;;;;;;11.52;3.33;;;;;;;0.64;100.00;100683.44;4991645;28;20042;-77
2021/04/06 03:33:11;;;;;;;11.77;2.22;;;;;;;0.67;100.00;100692.97;4989379;28;20050;-77
2021/04/06 03:35:41;;;;;;;15.85;3.50;;;;;;;0.65;100.00;100682.50;5007578;28;20066;-78
2021/04/06 03:38:10;;;;;;;17.83;3.33;;;;;;;0.65;100.00;100673.72;5012223;28;20038;-77
2021/04/06 03:40:38;;;;;;;;;;;;;;;0.64;100.00;100685.25;5012421;28;20045;-77
2021/04/06 03:43:14;;;;;;;11.77;2.42;;;;;;;0.56;100.00;100677.84;5007525;28;19917;-79
2021/04/06 03:45:59;;;;;;;11.85;2.88;;;;;;;0.60;100.00;100684.59;4991293;28;20058;-77
2021/04/06 03:48:27;;;;;;;14.20;3.00;;;;;;;0.61;100.00;100677.53;5009461;28;20049;-77
2021/04/06 03:50:53;;;;;;;18.70;4.20;;;;;;;0.63;100.00;100670.34;5007030;28;20049;-77
2021/04/06 03:53:20;;;;;;;17.23;3.45;;;;;;;0.63;100.00;100671.22;4982703;28;20045;-77
2021/04/06 03:56:11;;;;;;;14.20;3.72;;;;;;;0.66;100.00;100673.63;5001182;28;20045;-78
2021/04/06 03:58:44;;;;;;;15.23;3.40;;;;;;;0.64;100.00;100672.88;4978549;28;20495;-78
2021/04/06 04:01:11;;;;;;;12.48;2.95;;;;;;;0.60;100.00;100679.31;5009167;28;20048;-78
2021/04/06 04:03:37;;;;;;;14.02;2.65;;;;;;;0.60;100.00;100676.66;5006488;28;20050;-77
2021/04/06 04:06:03;;;;;;;18.02;3.58;;;;;;;0.63;100.00;100668.56;5013999;28;20050;-79
2021/04/06 04:08:29;;;;;;;15.82;2.55;;;;;;;0.60;100.00;100666.09;5004543;28;20457;-77
2021/04/06 04:10:54;;;;;;;12.93;2.70;;;;;;;0.60;100.00;100671.38;4999164;28;20100;-77
2021/04/06 04:13:20;;;;;;;18.83;3.70;;;;;;;0.57;100.00;100671.59;4988155;28;20482;-76
2021/04/06 04:15:46;;;;;;;19.80;3.20;;;;;;;0.58;100.00;100683.03;5009601;28;20041;-77
2021/04/06 04:18:12;;;;;;;21.40;4.03;;;;;;;0.56;100.00;100680.47;5008973;28;20053;-78
2021/04/06 04:20:37;;;;;;;15.40;3.35;;;;;;;0.54;100.00;100677.09;5003492;28;20044;-78
2021/04/06 04:23:03;;;;;;;20.02;4.07;;;;;;;0.55;100.00;100680.59;5008519;28;20056;-77
2021/04/06 04:25:29;;;;;;;17.17;3.70;;;;;;;0.53;100.00;100679.84;4998061;28;20081;-76
2021/04/06 04:27:56;;;;;;;18.38;3.67;;;;;;;0.51;100.00;100687.84;4992853;28;20050;-77
2021/04/06 04:30:38;;;;;;;17.58;2.50;;;;;;;0.48;100.00;100685.41;5014258;28;20046;-77
2021/04/06 04:33:09;;;;;;;14.35;3.40;;;;;;;0.47;100.00;100693.47;4989867;28;20147;-78
2021/04/06 04:35:36;;;;;;;13.38;2.83;;;;;;;0.48;100.00;100689.84;5005551;28;20728;-77
2021/04/06 04:38:03;;;;;;;13.23;2.95;;;;;;;0.47;100.00;100680.25;5004463;28;20050;-77
2021/04/06 04:40:28;;;;;;;12.38;3.10;;;;;;;0.44;100.00;100684.78;5011550;28;20045;-78
2021/04/06 04:42:55;;;;;;;13.23;2.97;;;;;;;0.41;100.00;100681.50;4991557;28;20234;-78
2021/04/06 04:45:21;;;;;;;12.60;2.63;;;;;;;0.42;100.00;100676.09;4990724;28;20038;-78
2021/04/06 04:47:47;;;;;;;17.50;3.13;;;;;;;0.36;100.00;100689.72;4999213;28;20545;-77
2021/04/06 04:50:14;;;;;;;12.63;2.30;;;;;;;0.34;100.00;100680.22;4993789;28;20164;-78
2021/04/06 04:52:45;;;;;;;15.45;2.53;;;;;;;0.33;100.00;100684.66;5014069;28;20042;-77
2021/04/06 04:55:18;;;;;;;11.60;2.95;;;;;;;0.34;100.00;100688.13;5007980;28;20490;-78
2021/04/06 04:57:44;;;;;;;22.42;3.15;;;;;;;0.34;100.00;100685.50;5005897;28;21200;-77
2021/04/06 05:00:12;;;;;;;12.95;2.63;;;;;;;0.31;100.00;100685.69;5007740;28;20129;-77
2021/04/06 05:02:39;;;;;;;14.93;3.13;;;;;;;0.33;100.00;100692.56;4983783;28;20051;-77
2021/04/06 05:05:07;;;;;;;13.93;3.08;;;;;;;0.32;100.00;100690.03;5004024;28;20111;-78
2021/04/06 05:07:39;;;;;;;14.48;3.10;;;;;;;0.29;100.00;100690.22;5000691;28;20049;-77
2021/04/06 05:10:09;;;;;;;11.77;3.03;;;;;;;0.28;100.00;100685.91;5012484;28;20376;-77
2021/04/06 05:12:35;;;;;;;12.45;2.67;;;;;;;0.27;100.00;100676.28;4999478;28;20129;-78
2021/04/06 05:15:02;;;;;;;11.75;2.92;;;;;;;0.28;100.00;100693.81;5012746;28;20465;-79
2021/04/06 05:17:28;;;;;;;13.52;2.80;;;;;;;0.30;100.00;100686.66;5006617;28;20141;-78
2021/04/06 05:19:53;;;;;;;13.60;2.70;;;;;;;0.30;100.00;100689.28;4989528;28;20135;-78
2021/04/06 05:22:18;;;;;;;13.85;3.00;;;;;;;0.33;100.00;100691.72;5006719;28;20048;-78
2021/04/06 05:24:45;;;;;;;13.30;3.08;;;;;;;0.31;100.00;100689.16;4985830;28;20056;-78
2021/04/06 05:27:10;;;;;;;18.88;3.03;;;;;;;0.30;100.00;100686.66;4984597;28;20057;-77
2021/04/06 05:29:36;;;;;;;13.85;2.42;;;;;;;0.30;100.00;100689.28;5006745;28;20045;-77
2021/04/06 05:32:02;;;;;;;11.65;2.17;;;;;;;0.32;100.00;100690.03;5009463;28;20057;-77
2021/04/06 05:34:28;;;;;;;13.43;2.75;;;;;;;0.33;100.00;100697.00;5001981;28;20541;-77
2021/04/06 05:36:54;;;;;;;13.02;2.85;;;;;;;0.34;100.00;100690.78;4982235;28;20058;-79
2021/04/06 05:39:19;;;;;;;11.95;2.60;;;;;;;0.34;100.00;100685.50;4995362;28;20595;-77
2021/04/06 05:41:46;;;;;;;11.02;3.05;;;;;;;0.39;100.00;100699.25;5000917;28;20141;-78
2021/04/06 05:44:12;;;;;;;14.23;2.63;;;;;;;0.44;100.00;100697.16;5007634;28;20128;-78
2021/04/06 05:46:40;;;;;;;11.43;3.08;;;;;;;0.48;100.00;100698.63;4988215;28;20496;-77
2021/04/06 05:49:11;;;;;;;16.63;3.38;;;;;;;0.54;100.00;100702.66;5009837;28;20053;-76
2021/04/06 05:51:42;;;;;;;15.43;2.90;;;;;;;0.54;100.00;100700.84;4987658;28;20096;-77
2021/04/06 05:54:11;;;;;;;12.77;3.38;;;;;;;0.56;100.00;100698.97;4987737;28;20136;-77
2021/04/06 05:56:37;;;;;;;14.13;3.30;;;;;;;0.65;100.00;100686.94;4996744;28;20398;-78
2021/04/06 05:59:06;;;;;;;12.27;2.45;;;;;;;0.64;100.00;100694.03;5020559;28;20041;-78
2021/04/06 06:01:36;;;;;;;8.30;2.67;;;;;;;0.63;100.00;100692.34;5000281;28;20082;-77
2021/04/06 06:04:02;;;;;;;10.20;2.22;;;;;;;0.59;100.00;100696.13;5013792;28;20088;-78
2021/04/06 06:06:27;;;;;;;12.50;2.08;;;;;;;0.61;100.00;100699.50;5010157;28;20061;-76
2021/04/06 06:08:57;;;;;;;7.85;2.00;;;;;;;0.57;100.00;100695.38;4988639;28;20049;-79
2021/04/06 06:11:23;;;;;;;12.98;1.88;;;;;;;0.57;100.00;100691.88;5015972;28;20046;-78
2021/04/06 06:13:48;;;;;;;6.65;1.58;;;;;;;0.56;100.00;100691.03;5009559;28;20090;-78
2021/04/06 06:16:20;;;;;;;8.40;1.83;;;;;;;0.59;100.00;100696.13;5007895;28;20096;-76
2021/04/06 06:19:03;;;;;;;7.75;1.55;;;;;;;0.59;100.00;100695.28;4975037;28;20397;-76
2021/04/06 06:21:55;;;;;;;6.15;1.40;;;;;;;0.62;100.00;100695.06;5007042;28;20112;-77
2021/04/06 06:24:27;;;;;;;7.32;1.45;;;;;;;0.60;100.00;100697.78;4960769;28;20069;-78
2021/04/06 06:26:58;;;;;;;7.15;1.80;;;;;;;0.67;100.00;100698.25;4997670;28;20052;-77
2021/04/06 06:29:27;;;;;;;9.60;1.98;;;;;;;0.70;100.00;100700.69;5009399;28;20046;-79
2021/04/06 06:31:55;;;;;;;7.18;2.15;;;;;;;0.81;100.00;100710.53;5002335;28;20964;-77
2021/04/06 06:34:38;;;;;;;7.82;2.10;;;;;;;0.76;100.00;100712.63;5006273;28;20502;-78
2021/04/06 06:37:24;;;;;;;10.80;1.75;;;;;;;0.80;100.00;100716.75;4970179;28;20104;-78
2021/04/06 06:39:52;;;;;;;7.28;1.25;;;;;;;0.77;100.00;100706.41;4985884;28;20054;-79
2021/04/06 06:42:21;;;;;;;9.25;1.83;;;;;;;0.74;100.00;100714.53;5010797;28;20037;-77
2021/04/06 06:44:46;;;;;;;8.40;1.50;;;;;;;0.70;100.00;100702.50;4992775;28;20073;-78
2021/04/06 06:47:17;;;;;;;6.63;1.70;;;;;;;0.68;100.00;100716.63;5004588;28;20085;-78
2021/04/06 06:49:44;;;;;;;7.38;1.38;;;;;;;0.67;100.00;100701.72;4994132;28;20049;-79
2021/04/06 06:52:21;;;;;;;6.68;1.63;;;;;;;0.69;100.00;100701.63;5008139;28;20135;-81
2021/04/06 06:54:48;;;;;;;8.73;1.90;;;;;;;0.77;100.00;100695.81;5007835;28;20099;-79
2021/04/06 06:57:15;;;;;;;9.07;1.63;;;;;;;0.80;100.00;100703.53;5010937;28;20386;-77
2021/04/06 06:59:45;;;;;;;10.35;2.20;;;;;;;0.86;99.92;100703.13;5007166;28;20042;-79
2021/04/06 07:02:20;;;;;;;8.70;2.20;;;;;;;0.89;100.00;100705.56;5011169;28;20394;-77
2021/04/06 07:04:46;;;;;;;6.43;2.13;;;;;;;0.90;99.72;100710.75;5001381;28;20053;-81
2021/04/06 07:07:12;;;;;;;7.93;2.03;;;;;;;1.00;99.51;100704.84;5015255;28;20139;-77
2021/04/06 07:09:39;;;;;;;5.43;1.60;;;;;;;1.06;98.90;100704.41;4987366;28;20527;-77
2021/04/06 07:12:06;;;;;;;6.90;2.05;;;;;;;1.17;98.68;100701.03;4998415;28;20414;-78
2021/04/06 07:14:32;;;;;;;11.13;2.20;;;;;;;1.26;99.00;100703.03;4990934;28;20151;-78
2021/04/06 07:16:59;;;;;;;9.23;1.92;;;;;;;1.39;98.70;100697.75;5004159;28;20046;-78
2021/04/06 07:19:27;;;;;;;7.47;1.60;;;;;;;1.48;97.97;100699.75;5004802;28;20054;-78
2021/04/06 07:21:55;;;;;;;9.52;2.33;;;;;;;1.55;97.56;100709.78;4998972;28;20107;-79
2021/04/06 07:24:27;;;;;;;6.40;2.50;;;;;;;1.60;97.20;100713.91;5004372;28;20038;-78
2021/04/06 07:26:53;;;;;;;8.23;1.92;;;;;;;1.60;96.99;100704.16;4990620;28;20053;-80
2021/04/06 07:29:20;;;;;;;5.72;1.83;;;;;;;1.49;97.79;100715.50;4987508;28;20042;-79
2021/04/06 07:31:46;;;;;;;10.38;2.35;;;;;;;1.42;98.80;100716.03;5001529;28;20068;-79
2021/04/06 07:34:17;;;;;;;9.38;2.47;;;;;;;1.39;100.00;100697.75;4979996;28;20048;-78
2021/04/06 07:36:44;;;;;;;10.68;2.20;;;;;;;1.35;100.00;100702.38;5004213;28;20050;-77
2021/04/06 07:39:12;;;;;;;8.15;2.17;;;;;;;1.35;100.00;100710.31;5006421;28;20046;-80
2021/04/06 07:41:44;;;;;;;7.85;2.28;;;;;;;1.33;99.63;100710.44;4980668;28;20136;-77
2021/04/06 07:44:12;;;;;;;8.70;2.28;;;;;;;1.31;99.39;100698.28;4996882;28;20095;-79
2021/04/06 07:46:43;;;;;;;5.82;1.85;;;;;;;1.41;100.00;100712.56;5004040;28;20049;-77
2021/04/06 07:49:32;;;;;;;5.95;2.08;;;;;;;1.47;98.30;100698.06;5007864;28;20084;-80
2021/04/06 07:52:05;;;;;;;11.13;2.58;;;;;;;1.48;98.29;100697.94;5013854;28;20532;-79
2021/04/06 07:54:30;;;;;;;4.75;2.42;;;;;;;1.52;97.69;100702.03;4975552;28;20049;-77
2021/04/06 07:56:58;;;;;;;6.18;1.90;;;;;;;1.51;96.79;100703.00;4991302;28;20056;-77
2021/04/06 07:59:24;;;;;;;9.57;2.13;;;;;;;1.58;96.57;100712.22;5003129;28;20486;-79
2021/04/06 08:01:56;;;;;;;12.65;3.08;;;;;;;1.64;96.77;100710.94;4999275;28;20053;-79
2021/04/06 08:04:23;;;;;;;8.35;1.92;;;;;;;1.62;95.97;100704.06;5009167;28;20049;-80
2021/04/06 08:06:57;;;;;;;12.10;2.38;;;;;;;1.65;96.12;100717.06;5008872;28;20038;-77
2021/04/06 08:09:29;;;;;;;9.35;2.67;;;;;;;1.69;95.79;100718.53;5015822;28;20489;-79
2021/04/06 08:12:03;;;;;;;8.43;2.00;;;;;;;1.74;96.06;100716.41;5001883;28;20048;-80
2021/04/06 08:14:33;;;;;;;9.38;1.83;;;;;;;1.75;95.04;100712.81;5012819;28;20068;-79
2021/04/06 08:17:23;;;;;;;4.18;1.75;;;;;;;1.84;94.64;100717.44;5003615;28;20038;-79
2021/04/06 08:19:51;;;;;;;9.65;2.03;;;;;;;1.90;94.34;100706.44;4989233;28;20034;-79
2021/04/06 08:22:29;;;;;;;5.72;1.90;;;;;;;1.89;93.23;100712.66;4989573;28;20045;-79
2021/04/06 08:25:17;;;;;;;10.98;2.53;;;;;;;2.03;93.78;100706.38;5007412;28;20038;-77
2021/04/06 08:27:45;;;;;;;6.18;1.50;;;;;;;2.12;91.97;100697.75;4965315;28;20038;-79
2021/04/06 08:30:38;;;;;;;11.15;2.13;;;;;;;2.19;92.62;100717.53;4992526;28;20046;-78
2021/04/06 08:33:06;;;;;;;7.78;2.33;;;;;;;2.16;92.13;100706.34;4965424;28;20081;-77
2021/04/06 08:35:49;;;;;;;6.03;1.70;;;;;;;2.25;92.67;100695.06;5007445;28;20438;-78
2021/04/06 08:38:41;;;;;;;9.70;1.95;;;;;;;2.30;92.16;100708.78;5008414;28;20046;-78
2021/04/06 08:41:31;;;;;;;9.85;2.17;;;;;;;2.35;91.72;100706.66;4993871;28;20056;-78
2021/04/06 08:43:59;;;;;;;9.05;3.17;;;;;;;2.40;91.25;100703.69;5009950;28;20099;-79
2021/04/06 08:46:43;;;;;;;7.25;2.63;;;;;;;2.48;91.45;100696.00;4999742;28;20399;-78
2021/04/06 08:49:15;;;;;;;8.65;3.03;;;;;;;2.45;90.39;100699.72;4983938;28;20054;-77
2021/04/06 08:51:50;;;;;;;7.20;2.08;;;;;;;2.41;90.07;100697.41;5008755;28;20045;-77
2021/04/06 08:54:21;;;;;;;9.32;1.92;;;;;;;2.44;90.27;100705.13;5010937;28;20042;-77
2021/04/06 08:56:50;;;;;;;11.00;1.88;;;;;;;2.46;90.63;100671.44;5015315;28;20096;-77
2021/04/06 08:59:31;;;;;;;8.63;2.22;;;;;;;2.51;90.47;100689.66;5003914;28;20667;-78
2021/04/06 09:01:59;;;;;;;8.90;1.88;;;;;;;2.56;89.06;100679.53;5013662;28;20398;-77
2021/04/06 09:04:31;;;;;;;6.30;1.70;;;;;;;2.65;89.11;100686.81;4983314;28;20398;-77
2021/04/06 09:06:57;;;;;;;9.18;2.13;;;;;;;2.76;88.81;100673.56;4998483;28;20078;-78
2021/04/06 09:09:31;;;;;;;8.73;2.10;;;;;;;2.87;89.06;100673.59;4989841;28;20562;-78
2021/04/06 09:11:59;;;;;;;11.65;2.92;;;;;;;2.86;87.66;100671.06;4997893;28;20970;-77
2021/04/06 09:14:28;;;;;;;10.80;2.22;;;;;;;2.88;85.83;100658.56;5001251;28;20046;-77
2021/04/06 09:16:54;;;;;;;14.52;2.78;;;;;;;2.96;84.83;100668.53;4966613;28;20141;-77
2021/04/06 09:19:22;;;;;;;9.38;2.33;;;;;;;2.99;82.97;100644.44;4996199;28;20507;-78
2021/04/06 09:21:54;;;;;;;7.85;2.08;;;;;;;3.04;82.51;100655.53;5016482;28;20050;-78
2021/04/06 09:24:22;;;;;;;7.32;1.80;;;;;;;3.04;82.22;100658.19;5012489;28;20120;-78
2021/04/06 09:26:51;;;;;;;12.95;2.33;;;;;;;3.01;83.28;100666.38;4999545;28;20070;-78
2021/04/06 09:29:20;;;;;;;10.93;2.20;;;;;;;2.97;83.17;100676.38;5012315;28;20041;-78
2021/04/06 09:31:51;;;;;;;12.45;2.47;;;;;;;2.77;84.93;100677.91;4981061;28;20049;-78
2021/04/06 09:34:23;;;;;;;6.43;2.05;;;;;;;2.33;88.70;100692.72;4996882;28;20052;-80
2021/04/06 09:36:57;;;;;;;9.63;2.55;;;;;;;1.98;92.49;100697.91;4999118;28;20044;-78
2021/04/06 09:39:24;;;;;;;8.75;2.17;;;;;;;1.82;94.49;100692.06;5011043;28;20046;-78
2021/04/06 09:41:50;;;;;;;8.75;2.58;;;;;;;1.78;95.07;100694.06;4990762;28;20049;-78
2021/04/06 09:44:20;;;;;;;7.70;3.00;;;;;;;1.76;96.16;100685.41;4994961;28;20125;-77
2021/04/06 09:46:48;;;;;;;8.80;2.50;;;;;;;1.79;96.61;100677.25;5015519;28;20046;-78
2021/04/06 09:49:15;;;;;;;6.93;1.83;;;;;;;1.82;96.52;100692.06;4996315;28;21341;-78
2021/04/06 09:51:53;;;;;;;8.93;1.77;;;;;;;1.90;95.48;100673.81;4987779;28;20065;-79
2021/04/06 09:54:41;;;;;;;7.38;1.98;;;;;;;2.04;95.90;100678.94;4995848;28;20156;-79
2021/04/06 09:57:10;;;;;;;6.57;1.67;;;;;;;2.21;97.02;100669.75;4991085;28;20049;-79
2021/04/06 10:00:00;;;;;;;6.55;2.10;;;;;;;2.41;96.62;100650.56;5015410;28;20311;-78
2021/04/06 10:02:26;;;;;;;;;;;;;;;2.45;94.78;100669.75;4997450;28;20042;-78
2021/04/06 10:04:53;;;;;;;4.32;1.40;;;;;;;2.43;94.40;100669.84;5008044;28;19921;-78
2021/04/06 10:07:30;;;;;;;7.80;1.50;;;;;;;2.47;93.90;100658.09;5007901;28;20129;-78
2021/04/06 10:10:07;;;;;;;6.78;1.83;;;;;;;2.82;96.21;100666.94;5016072;28;20052;-78
2021/04/06 10:12:33;;;;;;;5.22;1.77;;;;;;;2.92;95.64;100668.78;5018625;28;20493;-77
2021/04/06 10:14:59;;;;;;;5.57;2.30;;;;;;;3.01;94.14;100669.03;4993346;28;20048;-77
2021/04/06 10:17:39;;;;;;;4.50;1.65;;;;;;;2.78;90.26;100669.00;5003181;28;20132;-78
2021/04/06 10:20:14;;;;;;;5.28;1.40;;;;;;;2.49;88.53;100672.03;4987833;28;20045;-78
2021/04/06 10:22:44;;;;;;;7.25;2.13;;;;;;;2.51;92.04;100673.75;4993379;28;20092;-79
2021/04/06 10:25:12;;;;;;;9.10;2.67;;;;;;;2.44;93.03;100670.69;4990766;28;20099;-79
2021/04/06 10:27:43;;;;;;;8.07;2.40;;;;;;;2.34;92.97;100675.00;5010959;28;20769;-79
2021/04/06 10:30:12;;;;;;;10.55;1.73;;;;;;;2.26;94.58;100664.97;5006321;28;20045;-78
2021/04/06 10:32:40;;;;;;;8.18;2.17;;;;;;;2.24;96.32;100672.19;4992825;28;20049;-78
2021/04/06 10:35:23;;;;;;;7.30;2.08;;;;;;;2.20;96.66;100665.44;5002730;28;20084;-78
2021/04/06 10:37:59;;;;;;;7.00;1.52;;;;;;;1.87;97.03;100652.84;4988582;28;20100;-79
2021/04/06 10:40:28;;;;;;;7.00;2.00;;;;;;;1.65;98.27;100641.19;5010267;28;20053;-78
2021/04/06 10:42:56;;;;;;;;;;;;;;;1.59;99.76;100644.28;5004527;28;20132;-78
2021/04/06 10:45:24;;;;;;;7.20;2.42;;;;;;;1.52;100.00;100637.72;4977223;28;20907;-78
2021/04/06 10:48:01;;;;;;;7.03;2.60;;;;;;;1.55;100.00;100633.09;4999658;28;20070;-78
2021/04/06 10:50:31;;;;;;;5.70;2.22;;;;;;;1.80;100.00;100642.72;5010885;28;20049;-77
2021/04/06 10:52:57;;;;;;;4.15;2.42;;;;;;;2.00;100.00;100627.19;5007368;28;20050;-79
2021/04/06 10:55:34;;;;;;;9.18;2.35;;;;;;;2.24;100.00;100609.50;5009679;28;20041;-77
2021/04/06 10:58:00;;;;;;;7.80;2.20;;;;;;;2.41;100.00;100610.00;4990280;28;20049;-78
2021/04/06 11:00:27;;;;;;;5.15;1.73;;;;;;;2.42;98.32;100601.13;5012714;28;20038;-77
2021/04/06 11:03:18;;;;;;;6.78;1.95;;;;;;;2.61;97.24;100596.09;4999566;28;20188;-78
2021/04/06 11:05:44;;;;;;;7.22;2.00;;;;;;;2.84;96.04;100599.59;5003982;28;20041;-77
2021/04/06 11:08:24;;;;;;;5.72;1.75;;;;;;;3.01;94.69;100576.25;5010925;28;20498;-77
2021/04/06 11:10:53;;;;;;;5.35;1.77;;;;;;;3.23;94.59;100586.00;5002917;28;20042;-79
2021/04/06 11:13:19;;;;;;;6.53;1.70;;;;;;;3.11;89.60;100586.03;5011783;28;20133;-78
2021/04/06 11:15:45;;;;;;;4.70;1.40;;;;;;;3.29;90.72;100581.06;4997726;28;20145;-77
2021/04/06 11:18:11;;;;;;;6.78;1.95;;;;;;;3.52;88.62;100576.56;4994518;28;20381;-78
2021/04/06 11:20:40;;;;;;;3.47;1.02;;;;;;;3.66;85.62;100572.78;5004379;28;20677;-78
2021/04/06 11:23:05;;;;;;;6.07;1.50;;;;;;;3.83;85.96;100563.44;4991517;28;20049;-78
2021/04/06 11:25:31;;;;;;;3.38;1.17;;;;;;;3.82;83.19;100546.66;5011156;28;20301;-78
2021/04/06 11:28:00;;;;;;;5.07;1.45;;;;;;;3.87;85.18;100545.44;5003080;28;20703;-79
2021/04/06 11:30:35;;;;;;;6.82;1.45;;;;;;;3.99;82.42;100557.69;4993887;28;20664;-78
2021/04/06 11:33:04;;;;;;;6.07;1.48;;;;;;;4.13;83.76;100554.72;4984939;28;20080;-78
2021/04/06 11:35:30;;;;;;;4.50;1.40;;;;;;;4.33;85.10;100546.91;4990690;28;20048;-78
2021/04/06 11:37:57;;;;;;;3.25;1.25;;;;;;;4.24;83.23;100541.41;5007415;28;20049;-79
2021/04/06 11:40:24;;;;;;;7.25;1.58;;;;;;;4.38;84.33;100536.75;5006795;28;20046;-79